Home > Products > Valid Products > TAF

000
FTUS44 KHGX 260520
TAFLBX
TAF
KLBX 260520Z 2606/2706 00000KT P6SM SKC
     FM260700 00000KT 4SM BR SKC
      TEMPO 2609/2613 1 1/2SM BR
     FM261500 18009KT P6SM SKC=



000
FTUS44 KHGX 260520
TAFGLS
TAF
KGLS 260520Z 2606/2706 17005KT P6SM SKC
     FM262100 16010KT P6SM SKC=



000
FTUS44 KHGX 260520
TAFSGR
TAF
KSGR 260520Z 2606/2706 19003KT P6SM SKC
      TEMPO 2610/2614 3SM BR
     FM261800 20008KT P6SM SKC=



000
FTUS44 KHGX 260520
TAFHOU
TAF
KHOU 260520Z 2606/2706 19003KT P6SM SKC
     FM261800 18008KT P6SM SKC=



000
FTUS44 KHGX 260520
TAFIAH
TAF
KIAH 260520Z 2606/2712 19004KT P6SM SKC
     FM261900 18008KT P6SM SKC
     FM270600 18003KT P6SM SKC=



000
FTUS44 KHGX 260520
TAFHOU
TAF
KHOU 260520Z 2606/2706 19003KT P6SM SKC
     FM261800 18008KT P6SM SKC=



000
FTUS44 KHGX 260520
TAFLBX
TAF
KLBX 260520Z 2606/2706 00000KT P6SM SKC
     FM260700 00000KT 4SM BR SKC
      TEMPO 2609/2613 1 1/2SM BR
     FM261500 18009KT P6SM SKC=



000
FTUS44 KHGX 260520
TAFGLS
TAF
KGLS 260520Z 2606/2706 17005KT P6SM SKC
     FM262100 16010KT P6SM SKC=



000
FTUS44 KHGX 260520
TAFUTS
TAF
KUTS 260520Z 2606/2706 18005KT P6SM SKC=



000
FTUS44 KHGX 260520
TAFCLL
TAF
KCLL 260520Z 2606/2706 17003KT P6SM SKC
      TEMPO 2611/2613 5SM BR
     FM261600 18010KT P6SM SKC=



000
FTUS44 KHGX 260520
TAFCXO
TAF
KCXO 260520Z 2606/2706 18003KT P6SM SKC
      TEMPO 2610/2614 3SM BR
     FM261700 18008KT P6SM SKC=



000
FTUS44 KHGX 260520
TAFSGR
TAF
KSGR 260520Z 2606/2706 19003KT P6SM SKC
      TEMPO 2610/2614 3SM BR
     FM261800 20008KT P6SM SKC=



000
FTUS44 KHGX 260520
TAFIAH
TAF
KIAH 260520Z 2606/2712 19004KT P6SM SKC
     FM261900 18008KT P6SM SKC
     FM270600 18003KT P6SM SKC=



000
FTUS44 KHGX 260520
TAFCXO
TAF
KCXO 260520Z 2606/2706 18003KT P6SM SKC
      TEMPO 2610/2614 3SM BR
     FM261700 18008KT P6SM SKC=



000
FTUS44 KHGX 260520
TAFUTS
TAF
KUTS 260520Z 2606/2706 18005KT P6SM SKC=



000
FTUS44 KHGX 260520
TAFCLL
TAF
KCLL 260520Z 2606/2706 17003KT P6SM SKC
      TEMPO 2611/2613 5SM BR
     FM261600 18010KT P6SM SKC=



000
FTUS44 KHGX 260307 AAA
TAFHOU
TAF AMD
KHOU 260307Z 2603/2624 18003KT P6SM SKC
     FM261800 18008KT P6SM SKC=



000
FTUS44 KHGX 260306 AAA
TAFIAH
TAF AMD
KIAH 260306Z 2603/2706 18003KT P6SM SKC
     FM261900 18008KT P6SM SKC=



000
FTUS44 KHGX 252324
TAFUTS
TAF
KUTS 252324Z 2600/2624 18004KT P6SM SKC=



000
FTUS44 KHGX 252324
TAFGLS
TAF
KGLS 252324Z 2600/2624 14006KT P6SM SKC
     FM260300 18005KT P6SM SKC
     FM262100 16010KT P6SM SKC=



000
FTUS44 KHGX 252324
TAFCLL
TAF
KCLL 252324Z 2600/2624 18004KT P6SM SKC
      TEMPO 2611/2613 5SM BR
     FM261500 19004KT P6SM SKC=



000
FTUS44 KHGX 252324
TAFHOU
TAF
KHOU 252324Z 2600/2624 VRB04KT P6SM SKC
     FM261800 20007KT P6SM SKC=



000
FTUS44 KHGX 252324
TAFCXO
TAF
KCXO 252324Z 2600/2624 VRB03KT P6SM SKC
      TEMPO 2610/2614 3SM BR
     FM261700 18007KT P6SM SKC=



000
FTUS44 KHGX 252324
TAFSGR
TAF
KSGR 252324Z 2600/2624 VRB04KT P6SM SKC
      TEMPO 2610/2614 3SM BR
     FM261800 20008KT P6SM SKC=



000
FTUS44 KHGX 252324
TAFIAH
TAF
KIAH 252324Z 2600/2706 VRB04KT P6SM SKC
     FM261900 18008KT P6SM SKC=



000
FTUS44 KHGX 252324
TAFLBX
TAF
KLBX 252324Z 2600/2624 15004KT P6SM SKC
     FM260600 00000KT 5SM BR SKC
      TEMPO 2609/2613 1 1/2SM BR
     FM261700 17008KT P6SM SKC=



000
FTUS44 KHGX 252046 AAA
TAFIAH
TAF AMD
KIAH 252046Z 2521/2624 VRB04KT P6SM SKC
     FM261900 18008KT P6SM SKC=



000
FTUS44 KHGX 252046 AAA
TAFHOU
TAF AMD
KHOU 252046Z 2521/2618 VRB04KT P6SM SKC=



000
FTUS44 KHGX 251727
TAFUTS
TAF
KUTS 251727Z 2518/2618 VRB04KT P6SM SKC
     FM261500 19004KT P6SM SKC=



000
FTUS44 KHGX 251727
TAFIAH
TAF
KIAH 251727Z 2518/2624 VRB04KT P6SM SKC
     FM261900 18008KT P6SM SKC=



000
FTUS44 KHGX 251727
TAFSGR
TAF
KSGR 251727Z 2518/2618 VRB04KT P6SM SKC
      TEMPO 2610/2614 3SM BR=



000
FTUS44 KHGX 251727
TAFHOU
TAF
KHOU 251727Z 2518/2618 VRB04KT P6SM SKC=



000
FTUS44 KHGX 251727
TAFLBX
TAF
KLBX 251727Z 2518/2618 VRB04KT P6SM SKC
     FM260600 00000KT 5SM BR SKC
      TEMPO 2609/2613 1 1/2SM BR
     FM261500 17003KT P6SM SKC=



000
FTUS44 KHGX 251727
TAFGLS
TAF
KGLS 251727Z 2518/2618 VRB05KT P6SM SKC
     FM252100 10007KT P6SM SKC
     FM260300 17004KT P6SM SKC=



000
FTUS44 KHGX 251727
TAFCLL
TAF
KCLL 251727Z 2518/2618 VRB04KT P6SM SKC
      TEMPO 2611/2613 5SM BR
     FM261500 19004KT P6SM SKC=



000
FTUS44 KHGX 251727
TAFCXO
TAF
KCXO 251727Z 2518/2618 VRB04KT P6SM SKC
      TEMPO 2610/2614 3SM BR=



000
FTUS44 KHGX 251511 AAA
TAFIAH
TAF AMD
KIAH 251511Z 2515/2618 VRB04KT P6SM SKC=



000
FTUS44 KHGX 251511 AAA
TAFHOU
TAF AMD
KHOU 251511Z 2515/2612 VRB04KT P6SM SKC=



000
FTUS44 KHGX 251245 AAB
TAFLBX
TAF AMD
KLBX 251245Z 2513/2612 VRB04KT P6SM SKC=



000
FTUS44 KHGX 251150 AAA
TAFLBX
TAF AMD
KLBX 251150Z 2512/2612 VRB04KT P6SM SKC
      TEMPO 2512/2514 2SM BR=



000
FTUS44 KHGX 251150 AAA
TAFLBX
TAF AMD
KLBX 251150Z 2512/2612 VRB04KT P6SM SKC
      TEMPO 2512/2514 2SM BR=



000
FTUS44 KHGX 251136
TAFUTS
TAF
KUTS 251136Z 2512/2612 VRB04KT P6SM SKC=



000
FTUS44 KHGX 251136
TAFHOU
TAF
KHOU 251136Z 2512/2612 VRB04KT P6SM SKC=



000
FTUS44 KHGX 251136
TAFCLL
TAF
KCLL 251136Z 2512/2612 VRB04KT P6SM SKC=



000
FTUS44 KHGX 251136
TAFCXO
TAF
KCXO 251136Z 2512/2612 VRB04KT P6SM SKC=



000
FTUS44 KHGX 251136
TAFGLS
TAF
KGLS 251136Z 2512/2612 VRB05KT P6SM SKC
     FM252100 12007KT P6SM SKC=



000
FTUS44 KHGX 251136
TAFLBX
TAF
KLBX 251136Z 2512/2612 VRB04KT P6SM SKC=



000
FTUS44 KHGX 251136
TAFIAH
TAF
KIAH 251136Z 2512/2618 VRB04KT P6SM SKC=



000
FTUS44 KHGX 251136
TAFSGR
TAF
KSGR 251136Z 2512/2612 VRB04KT P6SM SKC=



000
FTUS44 KHGX 251136
TAFCLL
TAF
KCLL 251136Z 2512/2612 VRB04KT P6SM SKC=



000
FTUS44 KHGX 251136
TAFHOU
TAF
KHOU 251136Z 2512/2612 VRB04KT P6SM SKC=



000
FTUS44 KHGX 251136
TAFIAH
TAF
KIAH 251136Z 2512/2618 VRB04KT P6SM SKC=



000
FTUS44 KHGX 251136
TAFSGR
TAF
KSGR 251136Z 2512/2612 VRB04KT P6SM SKC=



000
FTUS44 KHGX 251136
TAFLBX
TAF
KLBX 251136Z 2512/2612 VRB04KT P6SM SKC=



000
FTUS44 KHGX 251136
TAFUTS
TAF
KUTS 251136Z 2512/2612 VRB04KT P6SM SKC=



000
FTUS44 KHGX 251136
TAFCXO
TAF
KCXO 251136Z 2512/2612 VRB04KT P6SM SKC=



000
FTUS44 KHGX 251136
TAFGLS
TAF
KGLS 251136Z 2512/2612 VRB05KT P6SM SKC
     FM252100 12007KT P6SM SKC=



000
FTUS44 KHGX 250857 AAA
TAFIAH
TAF AMD
KIAH 250857Z 2509/2612 VRB04KT P6SM SKC=



000
FTUS44 KHGX 250857 AAA
TAFHOU
TAF AMD
KHOU 250857Z 2509/2606 VRB04KT P6SM SKC=



000
FTUS44 KHGX 250520
TAFCXO
TAF
KCXO 250520Z 2506/2606 VRB04KT P6SM SKC=



000
FTUS44 KHGX 250520
TAFLBX
TAF
KLBX 250520Z 2506/2606 VRB04KT P6SM SKC=



000
FTUS44 KHGX 250520
TAFSGR
TAF
KSGR 250520Z 2506/2606 VRB04KT P6SM SKC=



000
FTUS44 KHGX 250520
TAFUTS
TAF
KUTS 250520Z 2506/2606 VRB04KT P6SM SKC=



000
FTUS44 KHGX 250520
TAFHOU
TAF
KHOU 250520Z 2506/2606 VRB04KT P6SM SKC=



000
FTUS44 KHGX 250520
TAFCLL
TAF
KCLL 250520Z 2506/2606 VRB04KT P6SM SKC=



000
FTUS44 KHGX 250520
TAFGLS
TAF
KGLS 250520Z 2506/2606 VRB05KT P6SM SKC
     FM252100 11007KT P6SM SKC=



000
FTUS44 KHGX 250520
TAFIAH
TAF
KIAH 250520Z 2506/2612 VRB04KT P6SM SKC=



000
FTUS44 KHGX 250302 AAA
TAFIAH
TAF AMD
KIAH 250302Z 2503/2606 VRB04KT P6SM SKC=



000
FTUS44 KHGX 250302 AAA
TAFHOU
TAF AMD
KHOU 250302Z 2503/2524 VRB04KT P6SM SKC=



000
FTUS44 KHGX 242320
TAFSGR
TAF
KSGR 242320Z 2500/2524 VRB04KT P6SM SKC=



000
FTUS44 KHGX 242320
TAFGLS
TAF
KGLS 242320Z 2500/2524 VRB05KT P6SM SKC
     FM252100 11007KT P6SM SKC=



000
FTUS44 KHGX 242320
TAFIAH
TAF
KIAH 242320Z 2500/2606 VRB04KT P6SM SKC=



000
FTUS44 KHGX 242320
TAFLBX
TAF
KLBX 242320Z 2500/2524 VRB04KT P6SM SKC=



000
FTUS44 KHGX 242320
TAFCXO
TAF
KCXO 242320Z 2500/2524 VRB02KT P6SM SKC=



000
FTUS44 KHGX 242320
TAFCLL
TAF
KCLL 242320Z 2500/2524 VRB03KT P6SM SKC=



000
FTUS44 KHGX 242320
TAFUTS
TAF
KUTS 242320Z 2500/2524 VRB02KT P6SM SKC=



000
FTUS44 KHGX 242320
TAFHOU
TAF
KHOU 242320Z 2500/2524 VRB04KT P6SM SKC=



000
FTUS44 KHGX 242040 AAA
TAFHOU
TAF AMD
KHOU 242040Z 2421/2518 03006KT P6SM SKC=



000
FTUS44 KHGX 242040 AAA
TAFIAH
TAF AMD
KIAH 242040Z 2421/2524 06006KT P6SM SKC=



000
FTUS44 KHGX 241912 AAA
TAFCLL
TAF AMD
KCLL 241912Z 2419/2518 VRB06KT P6SM SKC
     FM250000 VRB03KT P6SM SKC=



000
FTUS44 KHGX 241720
TAFGLS
TAF
KGLS 241720Z 2418/2518 03010KT P6SM SKC
     FM250300 04005KT P6SM SKC
     FM251600 06008KT P6SM SKC=



000
FTUS44 KHGX 241720
TAFHOU
TAF
KHOU 241720Z 2418/2518 03006KT P6SM SKC=



000
FTUS44 KHGX 241720
TAFLBX
TAF
KLBX 241720Z 2418/2518 03006KT P6SM SKC=



000
FTUS44 KHGX 241720
TAFSGR
TAF
KSGR 241720Z 2418/2518 VRB06KT P6SM SKC=



000
FTUS44 KHGX 241720
TAFCLL
TAF
KCLL 241720Z 2418/2518 VRB06KT P6SM SCT050
     FM250000 VRB03KT P6SM SKC=



000
FTUS44 KHGX 241720
TAFIAH
TAF
KIAH 241720Z 2418/2524 03006KT P6SM SKC=



000
FTUS44 KHGX 241720
TAFUTS
TAF
KUTS 241720Z 2418/2518 VRB04KT P6SM SKC=



000
FTUS44 KHGX 241720
TAFCXO
TAF
KCXO 241720Z 2418/2518 VRB06KT P6SM SKC=



000
FTUS44 KHGX 241442 AAC
TAFCLL
TAF AMD
KCLL 241442Z 2415/2512 07006KT P6SM BKN050
     FM241800 04007KT P6SM FEW050
     FM250600 16003KT P6SM SKC=



000
FTUS44 KHGX 241442 AAC
TAFCLL
TAF AMD
KCLL 241442Z 2415/2512 07006KT P6SM BKN050
     FM241800 04007KT P6SM FEW050
     FM250600 16003KT P6SM SKC=



000
FTUS44 KHGX 241440 AAB
TAFCLL
TAF AMD
KCLL 241440Z 2415/2512 07006KT P6SM BKN050
     FM250600 16003KT P6SM SKC=



000
FTUS44 KHGX 241440 AAB
TAFCLL
TAF AMD
KCLL 241440Z 2415/2512 07006KT P6SM BKN050
     FM250600 16003KT P6SM SKC=



000
FTUS44 KHGX 241439 AAA
TAFIAH
TAF AMD
KIAH 241439Z 2415/2518 03006KT P6SM SKC
     FM250100 VRB02KT P6SM SKC=



000
FTUS44 KHGX 241439 AAA
TAFHOU
TAF AMD
KHOU 241439Z 2415/2512 03008KT P6SM SKC
     FM250100 VRB02KT P6SM SKC=



000
FTUS44 KHGX 241439 AAA
TAFIAH
TAF AMD
KIAH 241439Z 2415/2518 03006KT P6SM SKC
     FM250100 VRB02KT P6SM SKC=



000
FTUS44 KHGX 241439 AAA
TAFHOU
TAF AMD
KHOU 241439Z 2415/2512 03008KT P6SM SKC
     FM250100 VRB02KT P6SM SKC=



000
FTUS44 KHGX 241250 AAA
TAFCLL
TAF AMD
KCLL 241250Z 2413/2512 VRB03KT P6SM SCT050
     FM241500 VRB06KT P6SM SCT050
     FM250600 16003KT P6SM SKC=



000
FTUS44 KHGX 241133
TAFCXO
TAF
KCXO 241133Z 2412/2512 VRB03KT P6SM SKC
     FM241400 VRB06KT P6SM FEW050
     FM250100 00000KT P6SM SKC=



000
FTUS44 KHGX 241133
TAFHOU
TAF
KHOU 241133Z 2412/2512 VRB04KT P6SM SKC
     FM241400 02007KT P6SM SKC
     FM250100 VRB02KT P6SM SKC=



000
FTUS44 KHGX 241133
TAFSGR
TAF
KSGR 241133Z 2412/2512 VRB03KT P6SM SKC
     FM241400 03006KT P6SM SKC
     FM250000 VRB02KT P6SM SKC=



000
FTUS44 KHGX 241133
TAFGLS
TAF
KGLS 241133Z 2412/2512 03010KT P6SM SKC
     FM250100 06005KT P6SM SKC=



000
FTUS44 KHGX 241133
TAFIAH
TAF
KIAH 241133Z 2412/2518 VRB04KT P6SM SKC
     FM241400 03006KT P6SM SKC
     FM250100 VRB02KT P6SM SKC=



000
FTUS44 KHGX 241133
TAFCLL
TAF
KCLL 241133Z 2412/2512 VRB03KT P6SM SKC
     FM241500 VRB06KT P6SM SCT050
     FM250600 16003KT P6SM SKC=



000
FTUS44 KHGX 241133
TAFLBX
TAF
KLBX 241133Z 2412/2512 VRB03KT P6SM SKC
     FM241400 03007KT P6SM SKC
     FM250000 VRB02KT P6SM SKC=



000
FTUS44 KHGX 241133
TAFUTS
TAF
KUTS 241133Z 2412/2512 VRB03KT P6SM FEW050=



000
FTUS44 KHGX 240858 AAA
TAFIAH
TAF AMD
KIAH 240858Z 2409/2512 VRB04KT P6SM SKC
     FM241400 03006KT P6SM SKC
     FM250100 VRB02KT P6SM SKC=



000
FTUS44 KHGX 240858 AAA
TAFHOU
TAF AMD
KHOU 240858Z 2409/2506 VRB04KT P6SM SKC
     FM241400 04006KT P6SM SKC=



000
FTUS44 KHGX 240520
TAFUTS
TAF
KUTS 240520Z 2406/2506 VRB02KT P6SM SKC
     FM241000 VRB02KT 6SM MIFG FEW050
     FM241400 VRB06KT P6SM FEW050=



000
FTUS44 KHGX 240520
TAFCXO
TAF
KCXO 240520Z 2406/2506 VRB03KT P6SM SKC
     FM241400 VRB06KT P6SM FEW050=



000
FTUS44 KHGX 240520
TAFHOU
TAF
KHOU 240520Z 2406/2506 VRB04KT P6SM FEW150
     FM241400 04006KT P6SM SKC=



000
FTUS44 KHGX 240520
TAFGLS
TAF
KGLS 240520Z 2406/2506 03005KT P6SM SKC
     FM241500 03010KT P6SM SKC=



000
FTUS44 KHGX 240520
TAFCLL
TAF
KCLL 240520Z 2406/2506 VRB03KT P6SM FEW050
     FM241500 VRB06KT P6SM SCT050=



000
FTUS44 KHGX 240520
TAFIAH
TAF
KIAH 240520Z 2406/2512 VRB04KT P6SM FEW150
     FM241400 03006KT P6SM SKC
     FM250100 VRB02KT P6SM SKC=



000
FTUS44 KHGX 240520
TAFLBX
TAF
KLBX 240520Z 2406/2506 VRB04KT P6SM FEW250
     FM240900 VRB02KT 6SM MIFG SKC
     FM241400 04006KT P6SM SKC=



000
FTUS44 KHGX 240520
TAFSGR
TAF
KSGR 240520Z 2406/2506 VRB03KT P6SM SKC
     FM241400 04006KT P6SM SKC=



000
FTUS44 KHGX 232323
TAFCXO
TAF
KCXO 232323Z 2400/2424 VRB03KT P6SM SKC
     FM241400 VRB06KT P6SM FEW050=



000
FTUS44 KHGX 232323
TAFLBX
TAF
KLBX 232323Z 2400/2424 VRB04KT P6SM FEW250
     FM240900 VRB02KT 6SM MIFG SKC
     FM241400 04006KT P6SM SKC=



000
FTUS44 KHGX 232323
TAFGLS
TAF
KGLS 232323Z 2400/2424 VRB06KT P6SM FEW150
     FM240400 03005KT P6SM SKC
     FM241500 03010KT P6SM SKC=



000
FTUS44 KHGX 232323
TAFCLL
TAF
KCLL 232323Z 2400/2424 VRB06KT P6SM SCT080
     FM240600 VRB03KT P6SM FEW050
     FM241500 VRB06KT P6SM SCT050=



000
FTUS44 KHGX 232323
TAFIAH
TAF
KIAH 232323Z 2400/2506 VRB04KT P6SM FEW150
     FM241400 03006KT P6SM SKC
     FM250100 VRB02KT P6SM SKC=



000
FTUS44 KHGX 232323
TAFSGR
TAF
KSGR 232323Z 2400/2424 VRB03KT P6SM SKC
     FM241400 04006KT P6SM SKC=



000
FTUS44 KHGX 232323
TAFHOU
TAF
KHOU 232323Z 2400/2424 VRB04KT P6SM FEW150
     FM241400 04006KT P6SM SKC=



000
FTUS44 KHGX 232323
TAFUTS
TAF
KUTS 232323Z 2400/2424 VRB02KT P6SM SKC
     FM241000 VRB02KT 6SM MIFG FEW050
     FM241400 VRB06KT P6SM FEW050=



000
FTUS44 KHGX 232036 AAA
TAFHOU
TAF AMD
KHOU 232036Z 2321/2418 04008KT P6SM SCT180
     FM240200 VRB04KT P6SM SKC
     FM241400 04006KT P6SM SKC=



000
FTUS44 KHGX 232036 AAA
TAFIAH
TAF AMD
KIAH 232036Z 2321/2424 06009KT P6SM SCT140
     FM240100 VRB04KT P6SM SKC
     FM241400 04006KT P6SM SKC=



000
FTUS44 KHGX 231720
TAFSGR
TAF
KSGR 231720Z 2318/2418 06005KT P6SM BKN160 BKN250
     FM240200 VRB04KT P6SM SKC
     FM241400 04006KT P6SM SKC=



000
FTUS44 KHGX 231720
TAFLBX
TAF
KLBX 231720Z 2318/2418 05007KT P6SM BKN160 BKN250
     FM240200 VRB04KT P6SM SKC
     FM240900 VRB03KT 5SM BR SKC
     FM241400 04006KT P6SM SKC=



000
FTUS44 KHGX 231720
TAFHOU
TAF
KHOU 231720Z 2318/2418 05008KT P6SM BKN160 BKN250
     FM240200 VRB04KT P6SM SKC
     FM241400 04006KT P6SM SKC=



000
FTUS44 KHGX 231720
TAFCXO
TAF
KCXO 231720Z 2318/2418 05006KT P6SM BKN150
     FM240000 VRB03KT P6SM FEW100
      TEMPO 2409/2413 MIFG
     FM241400 VRB06KT P6SM FEW050=



000
FTUS44 KHGX 231720
TAFGLS
TAF
KGLS 231720Z 2318/2418 06009KT P6SM BKN150
     FM240000 05007KT P6SM SCT100
     FM240400 03005KT P6SM SKC
     FM241500 03010KT P6SM SKC=



000
FTUS44 KHGX 231720
TAFIAH
TAF
KIAH 231720Z 2318/2424 06006KT P6SM BKN160
     FM240100 VRB04KT P6SM SKC
     FM241400 04006KT P6SM SKC=



000
FTUS44 KHGX 231720
TAFUTS
TAF
KUTS 231720Z 2318/2418 VRB05KT P6SM BKN120
     FM232100 VRB05KT P6SM SCT080
     FM240600 VRB02KT P6SM FEW050
     FM240800 07003KT 4SM BR SCT005
     FM241400 VRB06KT P6SM FEW050=



000
FTUS44 KHGX 231720
TAFCLL
TAF
KCLL 231720Z 2318/2418 VRB06KT P6SM BKN120
     FM232100 VRB06KT P6SM SCT080
     FM240600 VRB03KT P6SM FEW050
     FM241500 VRB06KT P6SM SCT050=



000
FTUS44 KHGX 231436 AAA
TAFHOU
TAF AMD
KHOU 231436Z 2315/2412 05008KT P6SM OVC170
     FM240200 VRB02KT P6SM FEW250=



000
FTUS44 KHGX 231436 AAA
TAFHOU
TAF AMD
KHOU 231436Z 2315/2412 05008KT P6SM OVC170
     FM240200 VRB02KT P6SM FEW250=



000
FTUS44 KHGX 231435 AAA
TAFIAH
TAF AMD
KIAH 231435Z 2315/2418 06007KT P6SM OVC180
     FM240200 03003KT P6SM SKC=



000
FTUS44 KHGX 231435 AAA
TAFIAH
TAF AMD
KIAH 231435Z 2315/2418 06007KT P6SM OVC180
     FM240200 03003KT P6SM SKC=



000
FTUS44 KHGX 231122
TAFLBX
TAF
KLBX 231122Z 2312/2412 01006KT P6SM OVC250
     FM231500 05007KT P6SM BKN250
      TEMPO 2409/2412 MIFG SKC=



000
FTUS44 KHGX 231122
TAFCLL
TAF
KCLL 231122Z 2312/2412 07005KT P6SM SCT120 OVC200
     FM231600 05006KT P6SM BKN200
     FM240700 00000KT P6SM FEW250=



000
FTUS44 KHGX 231122
TAFUTS
TAF
KUTS 231122Z 2312/2412 00000KT P6SM FEW110 OVC200
     FM231600 04006KT P6SM BKN200
     FM240800 07003KT 4SM BR SCT005=



000
FTUS44 KHGX 231122
TAFCXO
TAF
KCXO 231122Z 2312/2412 VRB03KT P6SM OVC250
     FM231500 05006KT P6SM BKN250
     FM240400 00000KT P6SM FEW250
      TEMPO 2409/2412 MIFG=



000
FTUS44 KHGX 231122
TAFHOU
TAF
KHOU 231122Z 2312/2412 04003KT P6SM OVC250
     FM231500 06007KT P6SM BKN250
      TEMPO 2320/2323 10007KT SCT250
     FM240200 VRB02KT P6SM FEW250=



000
FTUS44 KHGX 231122
TAFSGR
TAF
KSGR 231122Z 2312/2412 01004KT P6SM OVC250
     FM231500 06007KT P6SM BKN250
     FM240200 03004KT P6SM FEW250=



000
FTUS44 KHGX 231122
TAFGLS
TAF
KGLS 231122Z 2312/2412 03009KT P6SM BKN250
     FM231700 06011KT P6SM BKN250
     FM240300 03005KT P6SM SKC=



000
FTUS44 KHGX 231122
TAFIAH
TAF
KIAH 231122Z 2312/2418 02005KT P6SM OVC200
     FM231500 06007KT P6SM BKN250
     FM240200 03003KT P6SM SKC=



000
FTUS44 KHGX 230919 AAA
TAFCLL
TAF AMD
KCLL 230919Z 2309/2406 07003KT P6SM SCT110 OVC200
     FM231300 05006KT P6SM BKN200=



000
FTUS44 KHGX 230918 AAA
TAFIAH
TAF AMD
KIAH 230918Z 2309/2412 01003KT P6SM BKN200
     FM231500 06007KT P6SM SCT150 SCT250
     FM240200 03004KT P6SM SKC=



000
FTUS44 KHGX 230918 AAA
TAFHOU
TAF AMD
KHOU 230918Z 2309/2406 02004KT P6SM BKN200
     FM231300 05007KT P6SM SCT150=



000
FTUS44 KHGX 230703 AAA
TAFLBX
TAF AMD
KLBX 230703Z 2307/2406 VRB03KT 6SM BR SCT250
      TEMPO 2307/2310 3SM BR
     FM231000 00000KT 4SM MIFG SCT150
      TEMPO 2310/2313 2SM BR
     FM231300 04006KT P6SM SCT120=



    US Dept of Commerce
    National Oceanic and Atmospheric Administration
    National Weather Service
    1325 East West Highway
    Silver Spring, MD 20910
    Page Author: NWS Internet Services Team
Disclaimer
Information Quality
Credits
Glossary
Privacy Policy
Freedom of Information Act (FOIA)
About Us
Career Opportunities